Time;durP1;ratioP1;P1;durP2;ratioP2;P2;SDS_P1;SDS_P2;PMS_P1;PMS_P2;Temp;Humidity;BMP_temperature;BMP_pressure;BME280_temperature;BME280_humidity;BME280_pressure;Samples;Min_cycle;Max_cycle;Signal;HPM_P1;HPM_P2
2021/10/12 00:02:38;;;;;;;102.10;55.30;;;;;;;9.59;61.25;99122.05;234388;1205;139059;-62
2021/10/12 00:07:43;;;;;;;103.10;56.20;;;;;;;9.53;61.29;99118.48;234375;1204;139092;-63
2021/10/12 00:12:46;;;;;;;102.60;55.70;;;;;;;9.49;61.30;99111.27;234334;1204;139537;-62
2021/10/12 00:17:49;;;;;;;103.70;55.60;;;;;;;9.48;61.63;99109.73;234316;1204;138892;-60
2021/10/12 00:22:52;;;;;;;104.60;54.90;;;;;;;9.51;61.62;99104.45;234399;1204;139816;-63
2021/10/12 00:27:55;;;;;;;110.60;57.20;;;;;;;9.57;61.74;99108.11;234477;1204;138935;-63
2021/10/12 00:32:59;;;;;;;100.20;54.40;;;;;;;9.62;61.78;99102.73;234311;1204;139029;-64
2021/10/12 00:38:02;;;;;;;92.30;53.30;;;;;;;9.62;62.09;99102.36;234378;1204;139408;-65
2021/10/12 00:43:05;;;;;;;93.60;53.80;;;;;;;9.56;62.71;99103.80;234167;1204;139059;-65
2021/10/12 00:48:09;;;;;;;98.10;56.30;;;;;;;9.49;63.06;99102.59;234284;1204;138856;-63
2021/10/12 00:53:12;;;;;;;93.70;53.30;;;;;;;9.42;63.68;99101.57;234322;1204;140380;-63
2021/10/12 00:58:15;;;;;;;93.10;52.90;;;;;;;9.35;64.00;99093.81;234266;1205;139786;-63
2021/10/12 01:03:19;;;;;;;88.40;53.60;;;;;;;9.32;64.45;99088.84;234015;1205;140365;-63
2021/10/12 01:08:22;;;;;;;95.50;53.80;;;;;;;9.30;64.71;99089.85;234030;1204;138811;-63
2021/10/12 01:13:26;;;;;;;89.40;52.40;;;;;;;9.30;64.82;99087.53;233888;1204;139280;-62
2021/10/12 01:18:30;;;;;;;94.80;56.10;;;;;;;9.27;65.16;99077.80;234374;1204;139088;-63
2021/10/12 01:23:33;;;;;;;100.80;54.20;;;;;;;9.21;65.42;99076.52;234308;1204;138952;-63
2021/10/12 01:28:36;;;;;;;96.10;53.90;;;;;;;9.20;65.63;99075.70;234337;1204;140366;-65
2021/10/12 01:33:39;;;;;;;89.20;51.40;;;;;;;9.20;65.80;99072.14;234404;1204;139977;-60
2021/10/12 01:38:43;;;;;;;92.20;52.40;;;;;;;9.21;65.89;99066.79;234336;1204;139052;-61
2021/10/12 01:43:46;;;;;;;86.20;51.30;;;;;;;9.18;66.01;99060.39;234272;1205;138938;-62
2021/10/12 01:48:49;;;;;;;87.30;52.10;;;;;;;9.15;66.25;99056.70;234356;1204;139004;-67
2021/10/12 01:53:52;;;;;;;93.10;54.10;;;;;;;9.12;66.40;99052.24;234336;1203;138588;-67
2021/10/12 01:58:55;;;;;;;88.00;51.60;;;;;;;9.10;66.75;99047.92;234333;1204;139547;-67
2021/10/12 02:03:58;;;;;;;86.00;50.90;;;;;;;9.10;66.85;99045.64;234441;1204;139147;-64
2021/10/12 02:09:02;;;;;;;91.50;52.00;;;;;;;9.10;66.98;99042.81;234181;1205;139250;-64
2021/10/12 02:14:06;;;;;;;89.30;50.40;;;;;;;9.11;67.05;99033.18;234261;1204;141525;-62
2021/10/12 02:19:09;;;;;;;85.60;50.70;;;;;;;9.09;67.22;99028.86;234185;1204;139073;-60
2021/10/12 02:24:12;;;;;;;80.90;48.40;;;;;;;9.06;67.28;99022.88;234277;1204;138964;-66
2021/10/12 02:29:16;;;;;;;79.30;47.20;;;;;;;9.06;67.52;99021.44;234069;1204;139216;-62
2021/10/12 02:34:19;;;;;;;73.80;45.00;;;;;;;9.11;67.75;99016.58;234386;1205;140901;-60
2021/10/12 02:39:22;;;;;;;73.60;43.70;;;;;;;9.14;67.58;99016.20;234450;1204;139299;-62
2021/10/12 02:44:25;;;;;;;67.90;40.90;;;;;;;9.16;68.07;99018.21;234344;1204;139543;-62
2021/10/12 02:49:28;;;;;;;67.10;41.50;;;;;;;9.15;68.08;99025.34;234042;1205;139002;-64
2021/10/12 02:54:32;;;;;;;68.40;39.80;;;;;;;9.17;68.13;99026.85;234375;1204;139281;-65
2021/10/12 02:59:35;;;;;;;67.40;40.20;;;;;;;9.17;68.14;99020.29;234037;1204;139371;-61
2021/10/12 03:04:37;;;;;;;63.90;38.70;;;;;;;9.20;68.56;99024.56;234191;1204;139463;-63
2021/10/12 03:09:40;;;;;;;63.90;38.90;;;;;;;9.21;68.36;99022.52;234499;1204;139048;-66
2021/10/12 03:14:44;;;;;;;60.40;36.00;;;;;;;9.20;68.26;99021.55;234166;1204;139048;-63
2021/10/12 03:19:47;;;;;;;56.70;33.10;;;;;;;9.16;68.44;99017.34;234267;1204;139312;-60
2021/10/12 03:24:50;;;;;;;50.50;30.70;;;;;;;9.15;68.50;99011.38;234073;1204;139715;-62
2021/10/12 03:29:53;;;;;;;57.50;31.70;;;;;;;9.17;68.59;99008.45;234345;1204;139023;-57
2021/10/12 03:34:56;;;;;;;49.50;31.50;;;;;;;9.15;68.56;99012.98;234403;1204;139812;-61
2021/10/12 03:39:59;;;;;;;48.80;30.40;;;;;;;9.12;68.55;99003.96;234484;1204;139208;-61
2021/10/12 03:45:02;;;;;;;47.10;27.60;;;;;;;9.07;68.60;98999.79;234334;1204;139282;-60
2021/10/12 03:50:06;;;;;;;42.50;25.50;;;;;;;9.05;68.75;98999.20;234330;1197;141060;-62
2021/10/12 03:55:10;;;;;;;40.30;25.60;;;;;;;9.00;68.74;98994.54;234269;1204;139114;-58
2021/10/12 04:00:13;;;;;;;78.80;52.90;;;;;;;9.03;68.88;99003.38;234054;1204;138838;-63
2021/10/12 04:05:16;;;;;;;42.50;25.10;;;;;;;9.15;69.06;98997.60;234372;1203;139409;-62
2021/10/12 04:10:19;;;;;;;34.10;21.10;;;;;;;9.16;68.47;98989.21;234072;1204;138740;-62
2021/10/12 04:15:22;;;;;;;30.00;18.90;;;;;;;9.07;68.31;98985.48;234494;1204;139459;-60
2021/10/12 04:20:27;;;;;;;80.60;49.50;;;;;;;9.00;68.43;98978.42;234073;1204;139135;-62
2021/10/12 04:25:30;;;;;;;34.70;20.50;;;;;;;9.04;68.64;98975.39;234415;1204;139642;-59
2021/10/12 04:30:35;;;;;;;33.10;20.20;;;;;;;8.95;68.41;98970.06;234350;1204;141247;-61
2021/10/12 04:35:38;;;;;;;32.70;20.10;;;;;;;8.82;68.26;98960.51;234421;1204;140821;-59
2021/10/12 04:40:42;;;;;;;39.10;23.50;;;;;;;8.72;68.51;98957.14;234267;1204;139856;-63
2021/10/12 04:45:45;;;;;;;44.30;26.20;;;;;;;8.63;68.59;98954.69;234351;1204;138821;-64
2021/10/12 04:50:48;;;;;;;42.90;24.70;;;;;;;8.57;68.80;98948.48;234300;1204;138345;-67
2021/10/12 04:55:51;;;;;;;158.40;92.00;;;;;;;8.57;69.30;98948.29;234308;1204;139141;-66
2021/10/12 05:00:54;;;;;;;44.40;27.50;;;;;;;8.69;69.33;98952.75;233808;1204;139526;-63
2021/10/12 05:05:58;;;;;;;42.10;24.90;;;;;;;8.71;69.23;98948.75;234257;1204;138792;-65
2021/10/12 05:11:04;;;;;;;38.70;23.60;;;;;;;8.69;69.14;98941.22;234188;1204;138972;-60
2021/10/12 05:16:12;;;;;;;35.70;22.40;;;;;;;8.70;69.31;98938.21;234428;1204;139029;-61
2021/10/12 05:21:15;;;;;;;38.10;23.90;;;;;;;8.66;69.20;98930.48;234157;1204;139395;-61
2021/10/12 05:26:19;;;;;;;39.70;23.20;;;;;;;8.61;69.27;98929.14;234271;1205;139553;-62
2021/10/12 05:31:23;;;;;;;37.60;23.10;;;;;;;8.58;69.56;98925.25;234343;1204;139713;-61
2021/10/12 05:36:25;;;;;;;36.30;22.00;;;;;;;8.59;69.55;98922.54;234387;1204;140885;-64
2021/10/12 05:41:41;;;;;;;35.30;23.50;;;;;;;8.61;69.59;98925.79;234398;1204;138697;-64
2021/10/12 05:46:44;;;;;;;36.50;24.10;;;;;;;8.62;69.72;98924.14;234204;1204;141529;-61
2021/10/12 05:51:48;;;;;;;36.80;22.30;;;;;;;8.67;69.94;98916.96;234454;1204;139545;-64
2021/10/12 05:57:05;;;;;;;38.50;22.70;;;;;;;8.72;69.81;98917.02;234092;1204;138862;-60
2021/10/12 06:02:08;;;;;;;38.90;23.20;;;;;;;8.76;70.09;98913.45;234365;1204;140038;-63
2021/10/12 06:07:11;;;;;;;31.80;20.70;;;;;;;8.77;70.15;98919.39;234336;1204;139667;-63
2021/10/12 06:12:14;;;;;;;33.80;21.80;;;;;;;8.80;70.10;98916.45;234346;1204;140007;-63
2021/10/12 06:17:17;;;;;;;34.00;20.50;;;;;;;8.83;70.23;98919.79;234355;1204;139590;-61
2021/10/12 06:22:20;;;;;;;35.00;20.60;;;;;;;8.88;70.26;98918.26;234278;1204;139071;-62
2021/10/12 06:27:24;;;;;;;27.40;18.90;;;;;;;8.98;70.22;98922.80;234489;1204;140268;-60
2021/10/12 06:32:27;;;;;;;32.30;18.20;;;;;;;9.11;70.32;98922.73;233826;1204;139545;-61
2021/10/12 06:37:30;;;;;;;31.60;19.70;;;;;;;9.18;70.19;98925.51;234382;1204;138548;-63
2021/10/12 06:42:33;;;;;;;34.90;21.50;;;;;;;9.20;70.06;98925.05;234390;1204;138419;-59
2021/10/12 06:47:36;;;;;;;33.30;20.20;;;;;;;9.22;70.28;98927.95;234353;1204;139058;-62
2021/10/12 06:52:39;;;;;;;29.30;19.80;;;;;;;9.32;70.18;98930.96;234392;1204;138798;-58
2021/10/12 06:57:43;;;;;;;34.20;20.50;;;;;;;9.38;69.88;98934.09;234298;1203;139075;-64
2021/10/12 07:02:47;;;;;;;33.00;20.70;;;;;;;9.39;69.88;98934.41;234314;1204;139044;-64
2021/10/12 07:07:50;;;;;;;37.00;19.60;;;;;;;9.39;69.99;98933.52;234337;1204;139132;-62
2021/10/12 07:12:53;;;;;;;34.00;20.30;;;;;;;9.41;69.92;98938.16;234381;1204;139716;-62
2021/10/12 07:17:56;;;;;;;39.30;22.10;;;;;;;9.45;69.99;98941.66;234395;1204;139128;-64
2021/10/12 07:22:59;;;;;;;37.30;21.50;;;;;;;9.46;69.97;98941.92;234094;1204;140127;-63
2021/10/12 07:28:03;;;;;;;36.70;20.10;;;;;;;9.50;69.85;98941.73;234353;1203;161138;-62
2021/10/12 07:33:06;;;;;;;41.00;23.20;;;;;;;9.50;69.74;98940.13;234352;1204;140168;-60
2021/10/12 07:38:30;;;;;;;41.30;23.60;;;;;;;9.53;69.92;98938.70;234405;1204;139005;-65
2021/10/12 07:43:34;;;;;;;40.30;21.80;;;;;;;9.54;69.94;98929.45;234367;1204;139272;-58
2021/10/12 07:48:37;;;;;;;41.50;24.70;;;;;;;9.61;70.20;98924.44;234324;1204;139445;-60
2021/10/12 07:53:41;;;;;;;38.00;21.50;;;;;;;9.67;70.13;98925.45;234307;1204;139044;-61
2021/10/12 07:58:44;;;;;;;42.60;25.20;;;;;;;9.70;70.01;98929.19;234350;1204;139110;-61
2021/10/12 08:03:47;;;;;;;36.40;23.60;;;;;;;9.72;70.21;98925.52;234536;1204;139635;-61
2021/10/12 08:08:50;;;;;;;38.50;22.20;;;;;;;9.79;70.02;98920.85;234349;1204;139769;-60
2021/10/12 08:13:56;;;;;;;36.90;22.50;;;;;;;9.90;70.17;98914.17;233630;1204;139800;-61
2021/10/12 08:19:03;;;;;;;35.80;21.70;;;;;;;10.06;70.17;98912.10;234342;1204;139620;-70
2021/10/12 08:24:06;;;;;;;111.70;70.10;;;;;;;10.20;69.86;98909.98;234263;1204;138940;-67
2021/10/12 08:29:09;;;;;;;33.00;20.00;;;;;;;10.29;69.84;98911.94;234166;1204;139137;-63
2021/10/12 08:34:13;;;;;;;33.50;21.00;;;;;;;10.28;69.28;98908.09;234452;1204;139828;-66
2021/10/12 08:39:16;;;;;;;33.70;20.50;;;;;;;10.30;68.97;98906.94;234296;1204;139367;-63
2021/10/12 08:44:19;;;;;;;30.50;17.30;;;;;;;10.24;68.99;98909.41;234346;1204;139462;-70
2021/10/12 08:49:22;;;;;;;36.60;20.30;;;;;;;10.22;68.84;98907.92;234119;1204;139639;-70
2021/10/12 08:54:25;;;;;;;40.20;21.40;;;;;;;10.22;68.96;98909.14;234257;1204;139979;-62
2021/10/12 08:59:28;;;;;;;37.10;22.20;;;;;;;10.21;68.41;98905.86;234271;1204;139593;-71
2021/10/12 09:04:39;;;;;;;35.20;20.80;;;;;;;10.23;68.81;98901.85;234277;1204;139067;-68
2021/10/12 09:09:42;;;;;;;30.70;18.80;;;;;;;10.23;68.78;98904.84;234200;1204;139391;-65
2021/10/12 09:14:56;;;;;;;30.10;18.80;;;;;;;10.30;68.78;98900.55;234284;1204;139130;-64
2021/10/12 09:20:21;;;;;;;34.10;19.90;;;;;;;10.38;68.33;98900.02;234344;1203;138933;-67
2021/10/12 09:25:32;;;;;;;27.30;18.20;;;;;;;10.37;68.64;98894.78;234171;1205;138792;-67
2021/10/12 09:30:38;;;;;;;29.10;18.00;;;;;;;10.38;68.33;98887.61;234160;1205;139127;-62
2021/10/12 09:35:42;;;;;;;151.80;84.90;;;;;;;10.39;68.27;98884.85;234115;1204;139782;-64
2021/10/12 09:40:46;;;;;;;39.80;20.20;;;;;;;10.49;68.13;98880.36;234317;1204;139086;-63
2021/10/12 09:45:50;;;;;;;32.40;18.20;;;;;;;10.58;68.52;98873.73;234399;1204;138515;-64
2021/10/12 09:51:10;;;;;;;26.50;15.80;;;;;;;10.64;67.97;98873.36;234165;1204;139674;-64
2021/10/12 09:56:14;;;;;;;26.70;15.10;;;;;;;10.73;67.92;98861.23;234421;1204;140164;-64
2021/10/12 10:01:18;;;;;;;27.10;14.20;;;;;;;10.93;67.77;98854.62;234291;1204;139398;-65
2021/10/12 10:06:22;;;;;;;21.40;11.20;;;;;;;11.01;67.50;98854.27;234385;1204;139299;-60
2021/10/12 10:11:27;;;;;;;18.70;10.60;;;;;;;11.03;67.30;98847.39;234346;1204;139401;-64
2021/10/12 10:16:31;;;;;;;;;;;;;;;11.02;66.47;98846.89;234338;1204;138759;-62
2021/10/12 10:21:41;;;;;;;21.30;8.40;;;;;;;11.00;66.36;98834.23;234573;1204;127326;-62
2021/10/12 10:26:44;;;;;;;10.90;6.80;;;;;;;11.06;66.44;98826.88;234301;1204;139790;-64
2021/10/12 10:31:52;;;;;;;14.40;5.90;;;;;;;11.14;65.74;98819.08;234236;1205;139860;-61
2021/10/12 10:37:16;;;;;;;8.20;3.90;;;;;;;11.24;65.11;98809.19;234343;1204;140067;-61
2021/10/12 10:42:28;;;;;;;7.50;3.60;;;;;;;11.24;64.27;98805.47;234260;1204;138945;-60
2021/10/12 10:47:42;;;;;;;8.60;3.80;;;;;;;11.23;63.83;98807.30;234358;1204;138932;-64
2021/10/12 10:52:51;;;;;;;7.80;4.00;;;;;;;11.31;63.66;98804.77;234365;1204;138662;-66
2021/10/12 10:58:14;;;;;;;12.00;4.50;;;;;;;11.47;63.59;98793.03;234473;1204;138727;-63
2021/10/12 11:03:29;;;;;;;10.50;3.40;;;;;;;11.63;63.02;98787.83;234326;1204;139036;-61
2021/10/12 11:08:34;;;;;;;8.10;3.40;;;;;;;11.67;62.63;98784.35;234211;1204;138945;-62
2021/10/12 11:13:38;;;;;;;6.10;3.30;;;;;;;11.71;62.30;98779.65;234224;1204;139655;-63
2021/10/12 11:18:44;;;;;;;;;;;;;;;11.77;61.97;98765.31;234341;1205;141361;-64
2021/10/12 11:23:50;;;;;;;4.70;2.70;;;;;;;11.85;61.87;98761.38;234248;1204;124968;-63
2021/10/12 11:28:56;;;;;;;5.90;2.40;;;;;;;11.90;61.01;98756.76;234363;1204;138472;-61
2021/10/12 11:34:02;;;;;;;6.50;1.90;;;;;;;11.98;60.43;98749.98;234514;1204;138864;-62
2021/10/12 11:39:06;;;;;;;7.40;2.50;;;;;;;12.02;60.11;98757.11;234360;1203;138623;-62
2021/10/12 11:44:20;;;;;;;7.90;2.20;;;;;;;11.94;59.74;98759.13;234381;1204;138649;-63
2021/10/12 11:49:24;;;;;;;6.90;1.80;;;;;;;11.89;59.21;98752.97;234372;1196;138685;-61
2021/10/12 11:54:27;;;;;;;5.70;1.80;;;;;;;11.81;58.44;98748.17;234446;1203;138966;-59
2021/10/12 11:59:35;;;;;;;4.50;1.90;;;;;;;11.84;58.24;98739.08;234397;1204;139303;-62
2021/10/12 12:04:38;;;;;;;4.10;1.70;;;;;;;11.93;58.20;98733.47;234340;1204;138973;-61
2021/10/12 12:09:46;;;;;;;80.70;47.30;;;;;;;12.01;57.87;98725.61;234346;1203;138562;-63
2021/10/12 12:14:51;;;;;;;12.20;4.80;;;;;;;12.14;58.03;98719.96;234309;1204;138773;-64
2021/10/12 12:20:06;;;;;;;3.50;1.90;;;;;;;12.32;57.75;98714.56;234290;1204;139308;-59
2021/10/12 12:25:18;;;;;;;5.90;1.80;;;;;;;12.46;56.81;98709.75;234223;1205;138390;-61
2021/10/12 12:30:30;;;;;;;3.40;1.70;;;;;;;12.56;56.39;98701.05;234205;1204;138354;-62
2021/10/12 12:35:39;;;;;;;5.30;1.90;;;;;;;12.66;56.26;98698.87;234258;1204;139427;-63
2021/10/12 12:40:46;;;;;;;2.80;1.60;;;;;;;12.69;55.48;98694.56;234301;1204;138597;-60
2021/10/12 12:46:13;;;;;;;9.10;2.30;;;;;;;12.64;55.09;98682.81;234454;1204;139875;-61
2021/10/12 12:51:29;;;;;;;4.90;1.70;;;;;;;12.67;55.40;98676.87;234111;1204;138813;-63
2021/10/12 12:56:38;;;;;;;3.90;1.70;;;;;;;12.82;55.48;98673.41;234274;1206;139421;-61
2021/10/12 13:01:50;;;;;;;5.50;1.70;;;;;;;13.06;55.26;98671.04;234145;1206;139607;-61
2021/10/12 13:06:54;;;;;;;6.40;1.80;;;;;;;13.20;54.42;98672.77;233966;1204;138442;-62
2021/10/12 13:11:58;;;;;;;20.60;11.90;;;;;;;13.23;53.91;98677.38;234280;1204;138474;-63
2021/10/12 13:17:01;;;;;;;4.60;2.00;;;;;;;13.32;54.72;98674.52;234348;1204;139044;-64
2021/10/12 13:22:05;;;;;;;8.00;2.20;;;;;;;13.19;53.50;98679.11;234391;1204;138862;-62
2021/10/12 13:27:08;;;;;;;7.70;2.30;;;;;;;12.93;53.41;98677.73;234333;1205;139304;-63
2021/10/12 13:32:10;;;;;;;11.00;3.30;;;;;;;12.68;53.33;98674.50;234176;1204;139013;-63
2021/10/12 13:37:14;;;;;;;5.80;2.60;;;;;;;12.47;53.65;98677.83;234275;1204;139835;-63
2021/10/12 13:42:18;;;;;;;4.60;2.50;;;;;;;12.18;53.82;98672.23;234301;1205;139603;-65
2021/10/12 13:47:21;;;;;;;8.00;3.10;;;;;;;11.90;54.09;98669.31;234264;1204;139016;-63
2021/10/12 13:52:28;;;;;;;8.60;3.30;;;;;;;11.71;54.54;98666.22;234290;1204;138957;-64
2021/10/12 13:57:33;;;;;;;8.20;2.90;;;;;;;11.65;54.87;98653.14;234202;1204;138927;-63
2021/10/12 14:02:39;;;;;;;9.10;3.50;;;;;;;11.60;55.24;98646.73;234379;1203;139832;-61
2021/10/12 14:07:42;;;;;;;10.10;3.00;;;;;;;11.61;55.32;98647.41;234469;1204;139199;-62
2021/10/12 14:12:50;;;;;;;6.90;3.20;;;;;;;11.61;55.72;98646.52;234070;1204;138768;-63
2021/10/12 14:17:53;;;;;;;9.30;3.40;;;;;;;11.66;55.84;98645.48;234588;1203;139444;-62
2021/10/12 14:22:57;;;;;;;4.60;2.30;;;;;;;11.67;55.40;98640.44;234613;1204;138458;-72
2021/10/12 14:28:00;;;;;;;81.10;42.40;;;;;;;11.66;55.37;98640.27;234745;1204;138953;-67
2021/10/12 14:33:03;;;;;;;11.80;5.10;;;;;;;11.82;56.13;98636.83;234019;1205;139063;-69
2021/10/12 14:38:07;;;;;;;6.30;3.30;;;;;;;11.92;55.66;98635.08;234482;1203;139023;-60
2021/10/12 14:43:11;;;;;;;5.90;2.60;;;;;;;11.86;55.25;98629.99;234558;1204;139033;-68
2021/10/12 14:48:15;;;;;;;7.80;2.60;;;;;;;11.80;55.47;98626.84;234249;1204;139759;-61
2021/10/12 14:53:18;;;;;;;15.40;8.50;;;;;;;11.77;55.55;98623.81;234562;1204;138845;-62
2021/10/12 14:58:21;;;;;;;30.20;15.70;;;;;;;11.80;55.53;98626.11;234712;1204;139016;-62
2021/10/12 15:03:24;;;;;;;8.30;3.30;;;;;;;11.87;55.48;98626.48;234538;1204;138722;-60
2021/10/12 15:08:30;;;;;;;8.70;3.40;;;;;;;11.81;55.18;98619.27;234573;1204;138665;-64
2021/10/12 15:13:34;;;;;;;9.80;3.60;;;;;;;11.76;55.43;98614.48;234560;1203;138367;-62
2021/10/12 15:18:38;;;;;;;5.50;3.20;;;;;;;11.73;55.41;98617.79;234645;1203;138852;-68
2021/10/12 15:23:42;;;;;;;11.30;3.50;;;;;;;11.70;55.55;98611.59;234564;1204;139658;-66
2021/10/12 15:28:45;;;;;;;11.30;3.70;;;;;;;11.65;55.51;98612.61;234648;1204;138480;-65
2021/10/12 15:33:48;;;;;;;8.10;3.50;;;;;;;11.62;55.52;98610.38;234083;1204;138385;-67
2021/10/12 15:39:28;;;;;;;9.00;3.80;;;;;;;11.54;55.64;98608.61;234622;1204;138554;-62
2021/10/12 15:44:33;;;;;;;59.00;37.40;;;;;;;11.50;55.89;98610.71;234678;1203;139643;-63
2021/10/12 15:49:36;;;;;;;18.30;6.10;;;;;;;11.55;56.05;98610.85;234653;1204;139474;-64
2021/10/12 15:54:43;;;;;;;10.90;4.90;;;;;;;11.60;56.15;98610.68;233986;1205;138769;-61
2021/10/12 15:59:46;;;;;;;12.00;4.70;;;;;;;11.50;56.06;98606.61;234593;1203;139182;-64
2021/10/12 16:04:49;;;;;;;12.00;4.80;;;;;;;11.37;55.90;98603.69;234215;1204;138686;-63
2021/10/12 16:09:52;;;;;;;12.80;4.60;;;;;;;11.23;56.35;98602.69;234625;1205;138966;-59
2021/10/12 16:20:52;;;;;;;15.00;4.60;;;;;;;11.00;57.23;98608.44;234521;1204;139365;-61
2021/10/12 16:25:48;;;;;;;10.70;5.20;;;;;;;10.88;57.44;98613.16;234609;1203;139139;-63
2021/10/12 16:30:50;;;;;;;14.50;5.20;;;;;;;10.78;57.79;98615.13;234634;1203;139254;-61
2021/10/12 16:35:55;;;;;;;13.60;5.40;;;;;;;10.70;58.10;98619.25;234535;1205;138915;-61
2021/10/12 16:40:59;;;;;;;15.30;6.00;;;;;;;10.64;58.07;98627.83;234603;1204;139267;-63
2021/10/12 16:46:06;;;;;;;17.20;5.80;;;;;;;10.55;58.42;98624.55;234400;1204;138590;-65
2021/10/12 16:51:10;;;;;;;16.60;6.50;;;;;;;10.49;59.04;98631.87;234428;1204;139967;-65
2021/10/12 16:56:13;;;;;;;19.90;6.10;;;;;;;10.47;59.21;98633.10;234427;1204;139657;-65
2021/10/12 17:01:16;;;;;;;16.50;6.20;;;;;;;10.41;59.33;98622.28;234599;1204;138364;-63
2021/10/12 17:06:20;;;;;;;22.10;5.70;;;;;;;10.39;59.91;98620.98;234444;1204;140679;-69
2021/10/12 17:11:26;;;;;;;21.90;6.90;;;;;;;10.41;59.91;98623.39;234513;1203;139324;-62
2021/10/12 17:16:29;;;;;;;15.40;6.20;;;;;;;10.45;59.83;98623.83;234787;1203;139339;-61
2021/10/12 17:21:32;;;;;;;16.30;6.30;;;;;;;10.52;59.88;98623.81;234671;1203;139742;-61
2021/10/12 17:26:35;;;;;;;613.60;452.00;;;;;;;10.62;59.61;98626.17;234516;1204;139133;-61
2021/10/12 17:31:38;;;;;;;37.80;20.00;;;;;;;10.86;60.45;98624.36;234480;1204;139338;-62
2021/10/12 17:36:43;;;;;;;18.30;9.00;;;;;;;11.02;59.55;98624.41;234632;1203;139210;-60
2021/10/12 17:41:46;;;;;;;16.50;8.20;;;;;;;10.98;59.27;98619.41;234655;1204;139082;-62
2021/10/12 17:46:49;;;;;;;13.50;6.90;;;;;;;10.91;59.23;98616.02;234664;1204;138986;-63
2021/10/12 17:51:54;;;;;;;16.70;7.00;;;;;;;10.85;59.39;98620.33;234787;1203;139289;-62
2021/10/12 17:57:09;;;;;;;15.20;7.70;;;;;;;10.77;59.93;98627.80;228690;1204;5304113;-61
2021/10/12 18:02:15;;;;;;;17.70;7.70;;;;;;;10.68;59.95;98628.27;232864;1204;139894;-61
2021/10/12 18:07:22;;;;;;;14.20;7.40;;;;;;;10.60;60.43;98625.80;233959;1204;138544;-64
2021/10/12 18:12:33;;;;;;;16.20;7.90;;;;;;;10.52;60.67;98626.33;234043;1204;138898;-62
2021/10/12 18:17:42;;;;;;;21.10;8.70;;;;;;;10.43;60.80;98626.61;234254;1204;141086;-62
2021/10/12 18:22:47;;;;;;;27.10;9.50;;;;;;;10.33;60.78;98628.90;234447;1204;138672;-63
2021/10/12 18:27:52;;;;;;;26.60;9.80;;;;;;;10.18;60.77;98633.72;234534;1204;138706;-63
2021/10/12 18:33:48;;;;;;;;;;;;;;;;;;;;;
2021/10/12 18:38:56;;;;;;;19.50;9.80;;;;;;;10.07;61.39;98646.04;233895;1204;139438;-63
2021/10/12 18:44:15;;;;;;;32.50;20.30;;;;;;;10.08;61.41;98653.04;233968;1204;138661;-62
2021/10/12 18:49:18;;;;;;;48.40;29.50;;;;;;;10.28;61.97;98652.75;234546;1203;139508;-58
2021/10/12 18:54:21;;;;;;;23.60;11.40;;;;;;;10.51;61.21;98653.76;234444;1203;138649;-59
2021/10/12 18:59:32;;;;;;;22.40;11.10;;;;;;;10.57;60.91;98653.50;234416;1203;140088;-58
2021/10/12 19:04:38;;;;;;;20.90;10.80;;;;;;;10.56;60.63;98654.45;234789;1197;138783;-61
2021/10/12 19:09:41;;;;;;;25.20;14.10;;;;;;;10.53;60.56;98658.91;234608;1203;139439;-61
2021/10/12 19:14:44;;;;;;;51.10;26.60;;;;;;;10.54;60.55;98655.16;234646;1204;138913;-60
2021/10/12 19:19:47;;;;;;;58.10;27.70;;;;;;;10.43;60.11;98655.34;234656;1203;139684;-61
2021/10/12 19:24:51;;;;;;;40.70;22.00;;;;;;;10.27;60.32;98656.39;234585;1203;139254;-62
2021/10/12 19:29:54;;;;;;;36.70;19.70;;;;;;;10.16;60.39;98648.06;234638;1203;139241;-62
2021/10/12 19:34:57;;;;;;;36.40;20.70;;;;;;;10.10;60.58;98651.98;234644;1204;139181;-62
2021/10/12 19:40:00;;;;;;;41.80;20.80;;;;;;;10.04;60.73;98653.98;234735;1203;140176;-65
2021/10/12 19:45:03;;;;;;;40.80;21.10;;;;;;;10.00;60.61;98651.44;234638;1203;139555;-63
2021/10/12 19:50:09;;;;;;;36.70;20.50;;;;;;;10.00;60.64;98646.83;234582;1204;139327;-61
2021/10/12 19:55:12;;;;;;;36.80;19.10;;;;;;;10.05;60.52;98637.98;234604;1204;139557;-59
2021/10/12 20:00:15;;;;;;;40.30;20.10;;;;;;;10.10;60.40;98637.79;234576;1203;139654;-60
2021/10/12 20:05:18;;;;;;;61.40;34.20;;;;;;;10.16;60.61;98636.34;234616;1203;140760;-58
2021/10/12 20:10:21;;;;;;;40.10;20.60;;;;;;;10.29;60.85;98643.52;234186;1204;139292;-60
2021/10/12 20:15:24;;;;;;;33.60;20.20;;;;;;;10.32;60.44;98643.85;234038;1205;139174;-64
2021/10/12 20:20:27;;;;;;;34.40;20.10;;;;;;;10.28;60.25;98641.45;234052;1204;139579;-61
2021/10/12 20:25:31;;;;;;;44.40;22.30;;;;;;;10.24;60.03;98630.70;234403;1205;138905;-60
2021/10/12 20:30:34;;;;;;;39.10;20.30;;;;;;;10.23;60.56;98632.73;234565;1204;141747;-64
2021/10/12 20:35:37;;;;;;;43.60;21.50;;;;;;;10.20;60.61;98632.35;234584;1204;138789;-60
2021/10/12 20:40:41;;;;;;;39.60;21.60;;;;;;;10.18;60.57;98627.88;234702;1204;139755;-62
2021/10/12 20:45:44;;;;;;;38.10;21.80;;;;;;;10.14;60.44;98630.23;234513;1204;140572;-62
2021/10/12 20:50:47;;;;;;;47.10;25.80;;;;;;;10.14;60.54;98635.80;234576;1204;140363;-62
2021/10/12 20:55:50;;;;;;;41.10;21.90;;;;;;;10.15;61.03;98640.48;234667;1204;140249;-61
2021/10/12 21:00:53;;;;;;;38.90;21.80;;;;;;;10.16;61.04;98642.21;234513;1204;139113;-61
2021/10/12 21:05:57;;;;;;;43.40;23.70;;;;;;;10.14;61.28;98643.39;234617;1204;138824;-61
2021/10/12 21:11:02;;;;;;;43.20;22.50;;;;;;;10.10;61.16;98633.03;234605;1203;139254;-60
2021/10/12 21:16:06;;;;;;;38.00;23.10;;;;;;;10.11;61.75;98631.71;234641;1204;140342;-58
2021/10/12 21:21:12;;;;;;;46.60;22.70;;;;;;;10.12;61.56;98630.73;234472;1204;140827;-59
2021/10/12 21:26:15;;;;;;;35.90;19.00;;;;;;;10.13;61.52;98627.19;234625;1203;139563;-58
2021/10/12 21:31:19;;;;;;;38.00;19.80;;;;;;;10.14;61.98;98628.67;234672;1203;139531;-59
2021/10/12 21:36:22;;;;;;;39.80;22.00;;;;;;;10.15;61.98;98640.14;234599;1203;138959;-59
2021/10/12 21:41:26;;;;;;;44.20;24.00;;;;;;;10.10;61.85;98649.00;234578;1204;139268;-59
2021/10/12 21:46:29;;;;;;;44.90;24.50;;;;;;;10.00;61.95;98650.92;234549;1204;139864;-58
2021/10/12 21:51:32;;;;;;;48.60;24.20;;;;;;;9.89;62.14;98653.36;234601;1204;139092;-58
2021/10/12 21:56:35;;;;;;;42.40;22.60;;;;;;;9.77;62.54;98659.30;234643;1204;138358;-58
2021/10/12 22:01:39;;;;;;;42.10;22.50;;;;;;;9.62;62.40;98657.77;234455;1203;138735;-59
2021/10/12 22:06:42;;;;;;;43.90;24.00;;;;;;;9.46;63.06;98660.56;233177;1204;139295;-61
2021/10/12 22:11:46;;;;;;;43.60;22.30;;;;;;;9.38;63.40;98659.14;233175;1204;138675;-59
2021/10/12 22:16:50;;;;;;;40.10;23.30;;;;;;;9.29;63.53;98657.58;234570;1205;139730;-59
2021/10/12 22:21:53;;;;;;;36.80;19.90;;;;;;;9.21;63.80;98654.15;234552;1204;138562;-57
2021/10/12 22:26:56;;;;;;;36.60;19.60;;;;;;;9.14;64.22;98662.03;234431;1204;138533;-65
2021/10/12 22:31:59;;;;;;;33.80;18.70;;;;;;;9.10;64.38;98667.62;234584;1204;139635;-62
2021/10/12 22:37:02;;;;;;;33.30;17.60;;;;;;;9.10;64.63;98667.28;234557;1204;138964;-60
2021/10/12 22:42:07;;;;;;;35.10;19.70;;;;;;;9.09;64.79;98669.98;234710;1204;139164;-60
2021/10/12 22:47:10;;;;;;;31.00;17.20;;;;;;;9.12;65.11;98668.05;234697;1205;138766;-66
2021/10/12 22:52:13;;;;;;;26.50;15.40;;;;;;;9.10;65.12;98670.30;234849;1204;139028;-65
2021/10/12 22:57:16;;;;;;;28.10;17.40;;;;;;;9.04;65.32;98668.72;234636;1204;138855;-71
2021/10/12 23:02:19;;;;;;;27.00;16.30;;;;;;;9.03;65.41;98671.41;234136;1205;138343;-64
2021/10/12 23:07:22;;;;;;;25.90;14.10;;;;;;;8.99;65.39;98671.86;234547;1204;140533;-65
2021/10/12 23:12:25;;;;;;;25.70;13.30;;;;;;;8.98;65.76;98668.86;234515;1203;139448;-63